Brule, NE

9:50 AM MDT on April 30, 2017 (GMT -0600)
MUP108 | | Change Station
Active Advisory: Flood Advisory Active Notice: Flood Advisory

Elev 3280 ft 41.10 °N, 101.86 °W | Updated 1 hour ago

Clear
Clear
37.0 °F
Feels Like 37.0 °F
N
-
Wind Variable Wind from North

Today
High -- | Low -- °F
--% Chance of Precip.
Yesterday
High -- | Low -- °F
Precip. -- in
Pressure 29.86 in
Visibility 10.0 miles
Clouds Clear
Dew Point Not available.
Humidity Not available.
Rainfall in
Snow Depth Not available.
5:46 AM 7:43 PM
Waxing Crescent, 23% visible
METAR KOGA 301535Z AUTO 36027G35KT 10SM CLR 07/M05 A2986 RMK AO2 T00681046
Pressure 29.86 in
Visibility 10.0 miles
Clouds Clear
Dew Point Not available.
Humidity Not available.
Rainfall in
Snow Depth Not available.
5:46 AM 7:43 PM
Waxing Crescent, 23% visible
METAR KOGA 301535Z AUTO 36027G35KT 10SM CLR 07/M05 A2986 RMK AO2 T00681046

Get Your Daily Forecast Email!

Thanks for signing up!

Be on the lookout for a verification email in your inbox.

You'll start receiving severe weather alerts in your inbox..

×

10-Day Weather Forecast

Almanac

Astronomy

Apr. 30, 2017 Rise Set
Actual Time
Civil Twilight
Nautical Twilight
Astronomical Twilight
Moon
Length of Visible Light
Length of Day
Tomorrow will be .
, % of the Moon is Illuminated

Today's Extremes

State Highs State Lows

Community

WunderPhotos

WunderBlog® & News

Nearby

Air Quality

  Air Quality AQ Index Pollutant
Not available.

Snow Depth

Station Depth Elevation

Earthquake Activity

City Distance Mag. Time & Date
Minimum magnitude displayed is 2.5.

Coastal Water Temperatures

Place Temperature

Stations

Nearby Weather Stations

Station Location Temp. Windchill Dew Point Humidity Wind Precip. Elev Updated Type
                   

Watches & Warnings

Flood Advisory
Issued: 7:31 AM MDT Apr. 30, 2017 – National Weather Service

The flood advisory continues for
the North Platte river at Lewellen.
* Until this evening.
* At 6:45 am Sunday the stage was 7.5 feet.
* Flood stage is 7.5 feet.
* Forecast... the river is expected to fall below flood stage overnight
tonight.
* Impact... at 7.5 feet... minor flood stage. Overflow and high water
table levels will cause seepage and flooding of basements and crawl
spaces near and along the river.


Lat... Lon 4136 10235 4140 10235 4130 10196 4126 10197



Clb